Airfield :
LOGIN :

Register | Disclaimer

   EN    FR    IT 

 










Legend :    VFR   Marginal VFR   IFR   Intensive IFR   Very Intensive IFR
Visi :
Ceiling :
>= 8 km
>= 3000ft
5 to 8 km
1000 to 3000 ft
1500m to 5 km
500 to 1000 ft
800 to 1500m
200 to 500 ft
< 800m
< 200 ft
Symbols :   Thunderstorms  Fog  Heavy snow  Heavy precipitations  Wind > 20 kt
SIGMETs :     Misc.  Thunderstorms  Icing  Turbulence  Mountain Waves  Volcanic Ashes






- Airport Elevation : 348 ft
- IATA code : STN


EGSS - London Stansted

CURRENT METAR :
  • 180320Z AUTO 23011KT 9999 NCD 03/01 Q1018

EXPIRED METARs :
  • 180250Z AUTO 24011KT 9999 NCD 04/01 Q1018
  • 180220Z AUTO 23012KT 9999 NCD 03/01 Q1018
  • 180150Z AUTO 23012KT 9999 NCD 04/01 Q1017
  • 180120Z AUTO 23013KT 9999 NCD 04/01 Q1017
  • 180050Z AUTO 24011KT 9999 NCD 04/01 Q1017

TAF TAF EGSS
Valid from the 18 at 00:00 until the 19 at 06:00 UTC


172259Z 1800/1906 23012KT 9999 FEW030
PROB30
TEMPO 1800/1809 24018G28KT
BECMG 1809/1812 24018G28KT
TEMPO 1812/1819 6000 SHRA
PROB30
TEMPO 1816/1819 25022G38KT 3000 +SHRAGS BKN010 BKN020CB
BECMG 1819/1822 27012KT
PROB30
TEMPO 1819/1822 27020G30KT 4000 +SHRA
ATIS : +44 1279 669 325



MET'MAP, your aeronautical weather chart ! - Copyright ORBIFLY December 2007 - Disclaimer

ORBIFLY MET'MAP TEAM :

Programming & Development : Alexandra Zaïnal
Concept & original design : Baudouin d'Aumeries
Assistance for programming : Marc-Olivier Méhu
Technical & hardware support : Manuel Goepfert

Contact : metmap@orbifly.com




SOURCES & CREDITS :

   NOAA